sensor_id;sensor_type;location;lat;lon;timestamp;temperature;humidity
5846;DHT22;2949;50.778;7.094;2022-10-16T00:00:35;14.40;99.90
5846;DHT22;2949;50.778;7.094;2022-10-16T00:03:02;14.40;99.90
5846;DHT22;2949;50.778;7.094;2022-10-16T00:05:27;14.40;99.90
5846;DHT22;2949;50.778;7.094;2022-10-16T00:07:53;14.40;99.90
5846;DHT22;2949;50.778;7.094;2022-10-16T00:10:18;14.40;99.90
5846;DHT22;2949;50.778;7.094;2022-10-16T00:12:44;14.40;99.90
5846;DHT22;2949;50.778;7.094;2022-10-16T00:15:09;14.40;99.90
5846;DHT22;2949;50.778;7.094;2022-10-16T00:17:35;14.40;99.90
5846;DHT22;2949;50.778;7.094;2022-10-16T00:20:00;14.40;99.90
5846;DHT22;2949;50.778;7.094;2022-10-16T00:22:26;14.30;99.90
5846;DHT22;2949;50.778;7.094;2022-10-16T00:24:52;14.30;99.90
5846;DHT22;2949;50.778;7.094;2022-10-16T00:27:17;14.20;99.90
5846;DHT22;2949;50.778;7.094;2022-10-16T00:29:43;14.10;99.90
5846;DHT22;2949;50.778;7.094;2022-10-16T00:32:08;14.10;99.90
5846;DHT22;2949;50.778;7.094;2022-10-16T00:34:34;14.10;99.90
5846;DHT22;2949;50.778;7.094;2022-10-16T00:37:00;14.00;99.90
5846;DHT22;2949;50.778;7.094;2022-10-16T00:39:25;14.00;99.90
5846;DHT22;2949;50.778;7.094;2022-10-16T00:41:51;14.00;99.90
5846;DHT22;2949;50.778;7.094;2022-10-16T00:44:46;13.90;99.90
5846;DHT22;2949;50.778;7.094;2022-10-16T00:47:20;13.90;99.90
5846;DHT22;2949;50.778;7.094;2022-10-16T00:49:47;13.90;99.90
5846;DHT22;2949;50.778;7.094;2022-10-16T00:52:14;13.80;99.90
5846;DHT22;2949;50.778;7.094;2022-10-16T00:54:40;13.80;99.90
5846;DHT22;2949;50.778;7.094;2022-10-16T00:57:06;13.70;99.90
5846;DHT22;2949;50.778;7.094;2022-10-16T00:59:35;13.70;99.90
5846;DHT22;2949;50.778;7.094;2022-10-16T01:02:02;13.70;99.90
5846;DHT22;2949;50.778;7.094;2022-10-16T01:04:34;13.70;99.90
5846;DHT22;2949;50.778;7.094;2022-10-16T01:07:22;13.60;99.90
5846;DHT22;2949;50.778;7.094;2022-10-16T01:10:04;13.60;99.90
5846;DHT22;2949;50.778;7.094;2022-10-16T01:12:50;13.50;99.90
5846;DHT22;2949;50.778;7.094;2022-10-16T01:20:53;13.40;99.90
5846;DHT22;2949;50.778;7.094;2022-10-16T01:29:09;13.30;99.90
5846;DHT22;2949;50.778;7.094;2022-10-16T01:31:40;13.30;99.90
5846;DHT22;2949;50.778;7.094;2022-10-16T01:34:25;13.30;99.90
5846;DHT22;2949;50.778;7.094;2022-10-16T01:37:02;13.20;99.90
5846;DHT22;2949;50.778;7.094;2022-10-16T01:39:32;13.20;99.90
5846;DHT22;2949;50.778;7.094;2022-10-16T01:42:09;13.10;99.90
5846;DHT22;2949;50.778;7.094;2022-10-16T01:44:37;13.10;99.90
5846;DHT22;2949;50.778;7.094;2022-10-16T01:47:04;13.00;99.90
5846;DHT22;2949;50.778;7.094;2022-10-16T01:49:33;12.90;99.90
5846;DHT22;2949;50.778;7.094;2022-10-16T01:52:02;12.90;99.90
5846;DHT22;2949;50.778;7.094;2022-10-16T01:54:32;12.80;99.90
5846;DHT22;2949;50.778;7.094;2022-10-16T01:56:59;12.80;99.90
5846;DHT22;2949;50.778;7.094;2022-10-16T01:59:26;12.80;99.90
5846;DHT22;2949;50.778;7.094;2022-10-16T02:01:58;12.70;99.90
5846;DHT22;2949;50.778;7.094;2022-10-16T02:04:34;12.80;99.90
5846;DHT22;2949;50.778;7.094;2022-10-16T02:07:01;12.80;99.90
5846;DHT22;2949;50.778;7.094;2022-10-16T02:09:27;12.90;99.90
5846;DHT22;2949;50.778;7.094;2022-10-16T02:11:54;12.90;99.90
5846;DHT22;2949;50.778;7.094;2022-10-16T02:14:22;12.90;99.90
5846;DHT22;2949;50.778;7.094;2022-10-16T02:16:50;13.00;99.90
5846;DHT22;2949;50.778;7.094;2022-10-16T02:19:17;13.10;99.90
5846;DHT22;2949;50.778;7.094;2022-10-16T02:21:51;13.20;99.90
5846;DHT22;2949;50.778;7.094;2022-10-16T02:24:38;13.20;99.90
5846;DHT22;2949;50.778;7.094;2022-10-16T02:27:24;13.30;99.90
5846;DHT22;2949;50.778;7.094;2022-10-16T02:29:57;13.30;99.90
5846;DHT22;2949;50.778;7.094;2022-10-16T02:32:29;13.40;99.90
5846;DHT22;2949;50.778;7.094;2022-10-16T02:34:56;13.40;99.90
5846;DHT22;2949;50.778;7.094;2022-10-16T02:37:23;13.40;99.90
5846;DHT22;2949;50.778;7.094;2022-10-16T02:39:49;13.50;99.90
5846;DHT22;2949;50.778;7.094;2022-10-16T02:42:17;13.50;99.90
5846;DHT22;2949;50.778;7.094;2022-10-16T02:44:43;13.50;99.90
5846;DHT22;2949;50.778;7.094;2022-10-16T02:47:08;13.60;99.90
5846;DHT22;2949;50.778;7.094;2022-10-16T02:49:34;13.60;99.90
5846;DHT22;2949;50.778;7.094;2022-10-16T02:51:59;13.60;99.90
5846;DHT22;2949;50.778;7.094;2022-10-16T02:54:25;13.60;99.90
5846;DHT22;2949;50.778;7.094;2022-10-16T02:56:50;13.70;99.90
5846;DHT22;2949;50.778;7.094;2022-10-16T02:59:16;13.70;99.90
5846;DHT22;2949;50.778;7.094;2022-10-16T03:01:41;13.70;99.90
5846;DHT22;2949;50.778;7.094;2022-10-16T03:04:07;13.70;99.90
5846;DHT22;2949;50.778;7.094;2022-10-16T03:06:33;13.70;99.90
5846;DHT22;2949;50.778;7.094;2022-10-16T03:08:58;13.70;99.90
5846;DHT22;2949;50.778;7.094;2022-10-16T03:11:24;13.70;99.90
5846;DHT22;2949;50.778;7.094;2022-10-16T03:13:49;13.70;99.90
5846;DHT22;2949;50.778;7.094;2022-10-16T03:16:15;13.70;99.90
5846;DHT22;2949;50.778;7.094;2022-10-16T03:18:40;13.70;99.90
5846;DHT22;2949;50.778;7.094;2022-10-16T03:21:06;13.70;99.90
5846;DHT22;2949;50.778;7.094;2022-10-16T03:23:31;13.80;99.90
5846;DHT22;2949;50.778;7.094;2022-10-16T03:25:57;13.80;99.90
5846;DHT22;2949;50.778;7.094;2022-10-16T03:28:22;13.80;99.90
5846;DHT22;2949;50.778;7.094;2022-10-16T03:30:48;13.80;99.90
5846;DHT22;2949;50.778;7.094;2022-10-16T03:33:13;13.80;99.90
5846;DHT22;2949;50.778;7.094;2022-10-16T03:35:39;13.80;99.90
5846;DHT22;2949;50.778;7.094;2022-10-16T03:38:04;13.80;99.90
5846;DHT22;2949;50.778;7.094;2022-10-16T03:40:30;13.80;99.90
5846;DHT22;2949;50.778;7.094;2022-10-16T03:42:57;13.80;99.90
5846;DHT22;2949;50.778;7.094;2022-10-16T03:45:23;13.90;99.90
5846;DHT22;2949;50.778;7.094;2022-10-16T03:47:49;13.90;99.90
5846;DHT22;2949;50.778;7.094;2022-10-16T03:50:14;13.90;99.90
5846;DHT22;2949;50.778;7.094;2022-10-16T03:52:40;13.90;99.90
5846;DHT22;2949;50.778;7.094;2022-10-16T03:55:06;13.90;99.90
5846;DHT22;2949;50.778;7.094;2022-10-16T03:57:32;14.00;99.90
5846;DHT22;2949;50.778;7.094;2022-10-16T03:59:57;13.90;99.90
5846;DHT22;2949;50.778;7.094;2022-10-16T04:02:23;13.90;99.90
5846;DHT22;2949;50.778;7.094;2022-10-16T04:04:49;13.90;99.90
5846;DHT22;2949;50.778;7.094;2022-10-16T04:07:14;13.90;99.90
5846;DHT22;2949;50.778;7.094;2022-10-16T04:09:40;13.90;99.90
5846;DHT22;2949;50.778;7.094;2022-10-16T04:12:05;13.90;99.90
5846;DHT22;2949;50.778;7.094;2022-10-16T04:14:31;13.90;99.90
5846;DHT22;2949;50.778;7.094;2022-10-16T04:16:56;14.00;99.90
5846;DHT22;2949;50.778;7.094;2022-10-16T04:19:22;14.00;99.90
5846;DHT22;2949;50.778;7.094;2022-10-16T04:21:47;14.00;99.90
5846;DHT22;2949;50.778;7.094;2022-10-16T04:24:13;14.00;99.90
5846;DHT22;2949;50.778;7.094;2022-10-16T04:26:38;14.00;99.90
5846;DHT22;2949;50.778;7.094;2022-10-16T04:29:04;14.10;99.90
5846;DHT22;2949;50.778;7.094;2022-10-16T04:31:29;14.10;99.90
5846;DHT22;2949;50.778;7.094;2022-10-16T04:33:55;14.10;99.90
5846;DHT22;2949;50.778;7.094;2022-10-16T04:36:21;14.10;99.90
5846;DHT22;2949;50.778;7.094;2022-10-16T04:38:46;14.10;99.90
5846;DHT22;2949;50.778;7.094;2022-10-16T04:41:12;14.10;99.90
5846;DHT22;2949;50.778;7.094;2022-10-16T04:43:37;14.10;99.90
5846;DHT22;2949;50.778;7.094;2022-10-16T04:46:03;14.10;99.90
5846;DHT22;2949;50.778;7.094;2022-10-16T04:48:30;14.10;99.90
5846;DHT22;2949;50.778;7.094;2022-10-16T04:50:56;14.00;99.90
5846;DHT22;2949;50.778;7.094;2022-10-16T04:53:21;14.00;99.90
5846;DHT22;2949;50.778;7.094;2022-10-16T04:55:47;14.00;99.90
5846;DHT22;2949;50.778;7.094;2022-10-16T04:58:12;14.00;99.90
5846;DHT22;2949;50.778;7.094;2022-10-16T05:00:38;14.00;99.90
5846;DHT22;2949;50.778;7.094;2022-10-16T05:03:03;14.00;99.90
5846;DHT22;2949;50.778;7.094;2022-10-16T05:05:33;14.00;99.90
5846;DHT22;2949;50.778;7.094;2022-10-16T05:07:58;14.00;99.90
5846;DHT22;2949;50.778;7.094;2022-10-16T05:10:24;14.00;99.90
5846;DHT22;2949;50.778;7.094;2022-10-16T05:12:49;14.00;99.90
5846;DHT22;2949;50.778;7.094;2022-10-16T05:15:16;14.00;99.90
5846;DHT22;2949;50.778;7.094;2022-10-16T05:17:42;14.00;99.90
5846;DHT22;2949;50.778;7.094;2022-10-16T05:20:08;14.00;99.90
5846;DHT22;2949;50.778;7.094;2022-10-16T05:22:33;14.00;99.90
5846;DHT22;2949;50.778;7.094;2022-10-16T05:24:59;14.00;99.90
5846;DHT22;2949;50.778;7.094;2022-10-16T05:27:24;14.00;99.90
5846;DHT22;2949;50.778;7.094;2022-10-16T05:29:50;14.00;99.90
5846;DHT22;2949;50.778;7.094;2022-10-16T05:32:16;14.00;99.90
5846;DHT22;2949;50.778;7.094;2022-10-16T05:34:42;14.00;99.90
5846;DHT22;2949;50.778;7.094;2022-10-16T05:37:09;14.00;99.90
5846;DHT22;2949;50.778;7.094;2022-10-16T05:39:35;14.00;99.90
5846;DHT22;2949;50.778;7.094;2022-10-16T05:42:02;14.10;99.90
5846;DHT22;2949;50.778;7.094;2022-10-16T05:44:27;14.10;99.90
5846;DHT22;2949;50.778;7.094;2022-10-16T05:46:53;14.10;99.90
5846;DHT22;2949;50.778;7.094;2022-10-16T05:49:18;14.00;99.90
5846;DHT22;2949;50.778;7.094;2022-10-16T05:51:44;14.00;99.90
5846;DHT22;2949;50.778;7.094;2022-10-16T05:54:09;14.00;99.90
5846;DHT22;2949;50.778;7.094;2022-10-16T05:56:35;14.10;99.90
5846;DHT22;2949;50.778;7.094;2022-10-16T05:59:00;14.00;99.90
5846;DHT22;2949;50.778;7.094;2022-10-16T06:01:27;14.10;99.90
5846;DHT22;2949;50.778;7.094;2022-10-16T06:03:53;14.10;99.90
5846;DHT22;2949;50.778;7.094;2022-10-16T06:06:23;14.10;99.90
5846;DHT22;2949;50.778;7.094;2022-10-16T06:08:51;14.00;99.90
5846;DHT22;2949;50.778;7.094;2022-10-16T06:11:22;14.00;99.90
5846;DHT22;2949;50.778;7.094;2022-10-16T06:13:55;14.00;99.90
5846;DHT22;2949;50.778;7.094;2022-10-16T06:16:22;14.00;99.90
5846;DHT22;2949;50.778;7.094;2022-10-16T06:18:50;14.10;99.90
5846;DHT22;2949;50.778;7.094;2022-10-16T06:21:20;14.10;99.90
5846;DHT22;2949;50.778;7.094;2022-10-16T06:23:46;14.10;99.90
5846;DHT22;2949;50.778;7.094;2022-10-16T06:26:14;14.10;99.90
5846;DHT22;2949;50.778;7.094;2022-10-16T06:28:40;14.10;99.90
5846;DHT22;2949;50.778;7.094;2022-10-16T06:31:06;14.10;99.90
5846;DHT22;2949;50.778;7.094;2022-10-16T06:33:33;14.00;99.90
5846;DHT22;2949;50.778;7.094;2022-10-16T06:36:13;14.00;99.90
5846;DHT22;2949;50.778;7.094;2022-10-16T06:38:39;14.00;99.90
5846;DHT22;2949;50.778;7.094;2022-10-16T06:41:06;14.00;99.90
5846;DHT22;2949;50.778;7.094;2022-10-16T06:43:32;14.10;99.90
5846;DHT22;2949;50.778;7.094;2022-10-16T06:46:00;14.10;99.90
5846;DHT22;2949;50.778;7.094;2022-10-16T06:48:27;14.10;99.90
5846;DHT22;2949;50.778;7.094;2022-10-16T06:50:56;14.20;99.90
5846;DHT22;2949;50.778;7.094;2022-10-16T06:53:23;14.30;99.90
5846;DHT22;2949;50.778;7.094;2022-10-16T06:55:48;14.50;99.90
5846;DHT22;2949;50.778;7.094;2022-10-16T06:58:14;14.70;99.90
5846;DHT22;2949;50.778;7.094;2022-10-16T07:00:39;14.90;99.90
5846;DHT22;2949;50.778;7.094;2022-10-16T07:03:05;15.10;99.90
5846;DHT22;2949;50.778;7.094;2022-10-16T07:05:30;15.30;99.90
5846;DHT22;2949;50.778;7.094;2022-10-16T07:07:56;15.50;99.90
5846;DHT22;2949;50.778;7.094;2022-10-16T07:10:21;15.60;99.90
5846;DHT22;2949;50.778;7.094;2022-10-16T07:12:49;15.70;99.90
5846;DHT22;2949;50.778;7.094;2022-10-16T07:15:15;15.80;99.90
5846;DHT22;2949;50.778;7.094;2022-10-16T07:17:40;16.30;99.90
5846;DHT22;2949;50.778;7.094;2022-10-16T07:20:06;16.40;99.90
5846;DHT22;2949;50.778;7.094;2022-10-16T07:22:32;16.40;99.90
5846;DHT22;2949;50.778;7.094;2022-10-16T07:24:58;16.40;99.90
5846;DHT22;2949;50.778;7.094;2022-10-16T07:27:23;16.40;99.90
5846;DHT22;2949;50.778;7.094;2022-10-16T07:29:49;16.30;99.90
5846;DHT22;2949;50.778;7.094;2022-10-16T07:32:15;16.20;99.90
5846;DHT22;2949;50.778;7.094;2022-10-16T07:34:41;16.20;99.90
5846;DHT22;2949;50.778;7.094;2022-10-16T07:37:07;16.30;99.90
5846;DHT22;2949;50.778;7.094;2022-10-16T07:39:32;16.20;99.90
5846;DHT22;2949;50.778;7.094;2022-10-16T07:41:58;16.20;99.90
5846;DHT22;2949;50.778;7.094;2022-10-16T07:44:24;16.30;99.90
5846;DHT22;2949;50.778;7.094;2022-10-16T07:46:49;16.30;99.90
5846;DHT22;2949;50.778;7.094;2022-10-16T07:49:15;16.40;99.90
5846;DHT22;2949;50.778;7.094;2022-10-16T07:51:40;16.40;99.90
5846;DHT22;2949;50.778;7.094;2022-10-16T07:54:08;16.60;99.90
5846;DHT22;2949;50.778;7.094;2022-10-16T07:56:34;16.70;99.90
5846;DHT22;2949;50.778;7.094;2022-10-16T07:58:59;16.90;99.90
5846;DHT22;2949;50.778;7.094;2022-10-16T08:01:25;17.10;99.90
5846;DHT22;2949;50.778;7.094;2022-10-16T08:03:52;17.40;99.90
5846;DHT22;2949;50.778;7.094;2022-10-16T08:06:19;17.70;99.90
5846;DHT22;2949;50.778;7.094;2022-10-16T08:08:45;17.60;99.90
5846;DHT22;2949;50.778;7.094;2022-10-16T08:11:11;17.30;99.90
5846;DHT22;2949;50.778;7.094;2022-10-16T08:13:36;17.10;99.90
5846;DHT22;2949;50.778;7.094;2022-10-16T08:16:03;16.80;99.90
5846;DHT22;2949;50.778;7.094;2022-10-16T08:18:33;16.70;99.90
5846;DHT22;2949;50.778;7.094;2022-10-16T08:20:59;16.60;99.90
5846;DHT22;2949;50.778;7.094;2022-10-16T08:23:26;16.60;99.90
5846;DHT22;2949;50.778;7.094;2022-10-16T08:25:56;16.80;99.90
5846;DHT22;2949;50.778;7.094;2022-10-16T08:28:26;18.50;99.90
5846;DHT22;2949;50.778;7.094;2022-10-16T08:30:52;21.30;99.90
5846;DHT22;2949;50.778;7.094;2022-10-16T08:33:17;22.00;99.90
5846;DHT22;2949;50.778;7.094;2022-10-16T08:35:49;21.80;99.90
5846;DHT22;2949;50.778;7.094;2022-10-16T08:38:15;22.20;99.90
5846;DHT22;2949;50.778;7.094;2022-10-16T08:40:42;23.70;99.90
5846;DHT22;2949;50.778;7.094;2022-10-16T08:46:28;28.20;99.90
5846;DHT22;2949;50.778;7.094;2022-10-16T08:49:00;28.50;99.90
5846;DHT22;2949;50.778;7.094;2022-10-16T08:51:30;28.30;97.70
5846;DHT22;2949;50.778;7.094;2022-10-16T08:53:59;29.00;98.90
5846;DHT22;2949;50.778;7.094;2022-10-16T08:56:25;29.60;94.80
5846;DHT22;2949;50.778;7.094;2022-10-16T08:58:52;28.40;94.90
5846;DHT22;2949;50.778;7.094;2022-10-16T09:01:21;27.20;97.00
5846;DHT22;2949;50.778;7.094;2022-10-16T09:12:37;21.40;99.90
5846;DHT22;2949;50.778;7.094;2022-10-16T09:17:52;20.50;99.90
5846;DHT22;2949;50.778;7.094;2022-10-16T09:22:46;21.10;99.90
5846;DHT22;2949;50.778;7.094;2022-10-16T09:25:17;22.00;99.90
5846;DHT22;2949;50.778;7.094;2022-10-16T09:27:47;23.70;99.90
5846;DHT22;2949;50.778;7.094;2022-10-16T09:30:17;25.10;99.90
5846;DHT22;2949;50.778;7.094;2022-10-16T09:32:43;26.30;99.90
5846;DHT22;2949;50.778;7.094;2022-10-16T09:35:16;27.70;99.80
5846;DHT22;2949;50.778;7.094;2022-10-16T09:37:45;28.60;97.80
5846;DHT22;2949;50.778;7.094;2022-10-16T09:40:23;28.80;93.30
5846;DHT22;2949;50.778;7.094;2022-10-16T09:42:49;29.10;93.90
5846;DHT22;2949;50.778;7.094;2022-10-16T09:45:23;29.80;90.20
5846;DHT22;2949;50.778;7.094;2022-10-16T09:47:48;30.00;88.70
5846;DHT22;2949;50.778;7.094;2022-10-16T09:50:26;30.60;83.20
5846;DHT22;2949;50.778;7.094;2022-10-16T09:53:03;30.60;77.70
5846;DHT22;2949;50.778;7.094;2022-10-16T09:55:29;30.60;79.10
5846;DHT22;2949;50.778;7.094;2022-10-16T09:57:55;31.00;75.70
5846;DHT22;2949;50.778;7.094;2022-10-16T10:00:24;31.10;74.50
5846;DHT22;2949;50.778;7.094;2022-10-16T10:02:51;30.80;74.00
5846;DHT22;2949;50.778;7.094;2022-10-16T10:05:25;30.50;72.80
5846;DHT22;2949;50.778;7.094;2022-10-16T10:08:00;30.50;75.10
5846;DHT22;2949;50.778;7.094;2022-10-16T10:10:30;30.40;71.90
5846;DHT22;2949;50.778;7.094;2022-10-16T10:12:57;30.10;71.80
5846;DHT22;2949;50.778;7.094;2022-10-16T10:15:24;30.30;73.00
5846;DHT22;2949;50.778;7.094;2022-10-16T10:17:55;30.50;70.60
5846;DHT22;2949;50.778;7.094;2022-10-16T10:20:32;30.80;68.70
5846;DHT22;2949;50.778;7.094;2022-10-16T10:23:00;30.80;68.40
5846;DHT22;2949;50.778;7.094;2022-10-16T10:33:38;30.60;66.60
5846;DHT22;2949;50.778;7.094;2022-10-16T10:36:29;30.40;64.70
5846;DHT22;2949;50.778;7.094;2022-10-16T10:41:49;30.40;64.50
5846;DHT22;2949;50.778;7.094;2022-10-16T10:50:18;29.50;67.00
5846;DHT22;2949;50.778;7.094;2022-10-16T10:58:21;27.20;69.10
5846;DHT22;2949;50.778;7.094;2022-10-16T11:01:09;26.10;75.70
5846;DHT22;2949;50.778;7.094;2022-10-16T11:03:58;24.70;80.70
5846;DHT22;2949;50.778;7.094;2022-10-16T11:06:43;24.20;84.70
5846;DHT22;2949;50.778;7.094;2022-10-16T11:09:24;23.60;86.50
5846;DHT22;2949;50.778;7.094;2022-10-16T11:11:56;23.00;91.10
5846;DHT22;2949;50.778;7.094;2022-10-16T11:14:30;22.60;92.20
5846;DHT22;2949;50.778;7.094;2022-10-16T11:17:06;22.40;94.10
5846;DHT22;2949;50.778;7.094;2022-10-16T11:19:53;22.50;94.30
5846;DHT22;2949;50.778;7.094;2022-10-16T11:22:30;22.50;95.20
5846;DHT22;2949;50.778;7.094;2022-10-16T11:25:23;22.70;93.80
5846;DHT22;2949;50.778;7.094;2022-10-16T11:27:56;22.70;94.90
5846;DHT22;2949;50.778;7.094;2022-10-16T11:30:26;22.90;94.90
5846;DHT22;2949;50.778;7.094;2022-10-16T11:41:35;22.80;94.40
5846;DHT22;2949;50.778;7.094;2022-10-16T11:47:43;22.60;95.20
5846;DHT22;2949;50.778;7.094;2022-10-16T11:55:41;22.70;95.60
5846;DHT22;2949;50.778;7.094;2022-10-16T12:04:04;22.60;95.70
5846;DHT22;2949;50.778;7.094;2022-10-16T12:06:46;22.50;96.40
5846;DHT22;2949;50.778;7.094;2022-10-16T12:09:20;22.50;96.90
5846;DHT22;2949;50.778;7.094;2022-10-16T12:11:47;22.50;97.00
5846;DHT22;2949;50.778;7.094;2022-10-16T12:16:50;22.60;95.10
5846;DHT22;2949;50.778;7.094;2022-10-16T12:19:17;22.60;94.40
5846;DHT22;2949;50.778;7.094;2022-10-16T12:21:43;22.70;95.30
5846;DHT22;2949;50.778;7.094;2022-10-16T12:24:38;22.80;95.30
5846;DHT22;2949;50.778;7.094;2022-10-16T12:27:20;22.90;95.40
5846;DHT22;2949;50.778;7.094;2022-10-16T12:29:47;23.00;95.20
5846;DHT22;2949;50.778;7.094;2022-10-16T12:32:37;23.00;94.40
5846;DHT22;2949;50.778;7.094;2022-10-16T12:35:06;22.90;95.30
5846;DHT22;2949;50.778;7.094;2022-10-16T12:37:41;22.80;96.00
5846;DHT22;2949;50.778;7.094;2022-10-16T12:40:26;22.80;96.20
5846;DHT22;2949;50.778;7.094;2022-10-16T12:42:52;22.80;95.60
5846;DHT22;2949;50.778;7.094;2022-10-16T12:45:33;22.80;96.00
5846;DHT22;2949;50.778;7.094;2022-10-16T12:48:01;22.80;95.00
5846;DHT22;2949;50.778;7.094;2022-10-16T12:50:36;22.70;95.60
5846;DHT22;2949;50.778;7.094;2022-10-16T12:53:04;22.60;96.50
5846;DHT22;2949;50.778;7.094;2022-10-16T12:56:04;22.60;96.80
5846;DHT22;2949;50.778;7.094;2022-10-16T12:58:57;22.80;97.00
5846;DHT22;2949;50.778;7.094;2022-10-16T13:01:56;22.80;97.40
5846;DHT22;2949;50.778;7.094;2022-10-16T13:04:47;22.70;99.00
5846;DHT22;2949;50.778;7.094;2022-10-16T13:07:48;22.60;99.00
5846;DHT22;2949;50.778;7.094;2022-10-16T13:10:35;22.50;99.90
5846;DHT22;2949;50.778;7.094;2022-10-16T13:16:23;22.80;99.80
5846;DHT22;2949;50.778;7.094;2022-10-16T13:21:49;22.70;99.70
5846;DHT22;2949;50.778;7.094;2022-10-16T13:24:42;22.50;99.90
5846;DHT22;2949;50.778;7.094;2022-10-16T13:29:53;22.00;99.90
5846;DHT22;2949;50.778;7.094;2022-10-16T13:32:20;22.00;99.90
5846;DHT22;2949;50.778;7.094;2022-10-16T13:34:48;22.10;99.90
5846;DHT22;2949;50.778;7.094;2022-10-16T13:37:24;22.10;99.90
5846;DHT22;2949;50.778;7.094;2022-10-16T13:39:49;22.20;99.90
5846;DHT22;2949;50.778;7.094;2022-10-16T13:42:26;22.20;99.90
5846;DHT22;2949;50.778;7.094;2022-10-16T13:44:54;22.20;99.90
5846;DHT22;2949;50.778;7.094;2022-10-16T13:47:24;22.10;99.90
5846;DHT22;2949;50.778;7.094;2022-10-16T13:50:04;22.00;99.90
5846;DHT22;2949;50.778;7.094;2022-10-16T13:52:30;21.90;99.90
5846;DHT22;2949;50.778;7.094;2022-10-16T13:54:56;21.80;99.90
5846;DHT22;2949;50.778;7.094;2022-10-16T13:57:23;21.70;99.90
5846;DHT22;2949;50.778;7.094;2022-10-16T13:59:50;21.80;99.90
5846;DHT22;2949;50.778;7.094;2022-10-16T14:02:31;21.90;99.90
5846;DHT22;2949;50.778;7.094;2022-10-16T14:05:01;22.00;99.90
5846;DHT22;2949;50.778;7.094;2022-10-16T14:07:29;22.00;99.90
5846;DHT22;2949;50.778;7.094;2022-10-16T14:10:05;21.90;99.90
5846;DHT22;2949;50.778;7.094;2022-10-16T14:12:32;21.90;99.90
5846;DHT22;2949;50.778;7.094;2022-10-16T14:14:59;22.00;99.90
5846;DHT22;2949;50.778;7.094;2022-10-16T14:17:27;21.90;99.90
5846;DHT22;2949;50.778;7.094;2022-10-16T14:19:56;21.90;99.90
5846;DHT22;2949;50.778;7.094;2022-10-16T14:22:39;21.90;99.90
5846;DHT22;2949;50.778;7.094;2022-10-16T14:28:00;21.90;99.90
5846;DHT22;2949;50.778;7.094;2022-10-16T14:30:27;21.90;99.90
5846;DHT22;2949;50.778;7.094;2022-10-16T14:38:28;21.50;99.90
5846;DHT22;2949;50.778;7.094;2022-10-16T14:40:57;21.50;99.90
5846;DHT22;2949;50.778;7.094;2022-10-16T14:43:42;21.40;99.90
5846;DHT22;2949;50.778;7.094;2022-10-16T14:46:39;21.40;99.90
5846;DHT22;2949;50.778;7.094;2022-10-16T14:51:36;21.50;99.90
5846;DHT22;2949;50.778;7.094;2022-10-16T14:54:02;21.40;99.90
5846;DHT22;2949;50.778;7.094;2022-10-16T14:56:31;21.30;99.90
5846;DHT22;2949;50.778;7.094;2022-10-16T14:58:59;21.10;99.90
5846;DHT22;2949;50.778;7.094;2022-10-16T15:01:25;21.00;99.90
5846;DHT22;2949;50.778;7.094;2022-10-16T15:03:51;20.90;99.90
5846;DHT22;2949;50.778;7.094;2022-10-16T15:06:19;20.90;99.90
5846;DHT22;2949;50.778;7.094;2022-10-16T15:08:44;20.80;99.90
5846;DHT22;2949;50.778;7.094;2022-10-16T15:11:18;20.80;99.90
5846;DHT22;2949;50.778;7.094;2022-10-16T15:13:44;20.70;99.90
5846;DHT22;2949;50.778;7.094;2022-10-16T15:16:15;20.60;99.90
5846;DHT22;2949;50.778;7.094;2022-10-16T15:18:42;20.50;99.90
5846;DHT22;2949;50.778;7.094;2022-10-16T15:21:08;20.50;99.90
5846;DHT22;2949;50.778;7.094;2022-10-16T15:23:34;20.40;99.90
5846;DHT22;2949;50.778;7.094;2022-10-16T15:25:59;20.20;99.90
5846;DHT22;2949;50.778;7.094;2022-10-16T15:28:25;20.10;99.90
5846;DHT22;2949;50.778;7.094;2022-10-16T15:30:53;20.00;99.90
5846;DHT22;2949;50.778;7.094;2022-10-16T15:33:22;20.00;99.90
5846;DHT22;2949;50.778;7.094;2022-10-16T15:35:49;19.80;99.90
5846;DHT22;2949;50.778;7.094;2022-10-16T15:38:16;19.70;99.90
5846;DHT22;2949;50.778;7.094;2022-10-16T15:40:42;19.60;99.90
5846;DHT22;2949;50.778;7.094;2022-10-16T15:43:08;19.50;99.90
5846;DHT22;2949;50.778;7.094;2022-10-16T15:45:34;19.40;99.90
5846;DHT22;2949;50.778;7.094;2022-10-16T15:47:59;19.30;99.90
5846;DHT22;2949;50.778;7.094;2022-10-16T15:50:25;19.20;99.90
5846;DHT22;2949;50.778;7.094;2022-10-16T15:52:51;19.20;99.90
5846;DHT22;2949;50.778;7.094;2022-10-16T15:55:17;19.10;99.90
5846;DHT22;2949;50.778;7.094;2022-10-16T15:57:44;19.10;99.90
5846;DHT22;2949;50.778;7.094;2022-10-16T16:00:15;19.10;99.90
5846;DHT22;2949;50.778;7.094;2022-10-16T16:02:42;19.10;99.90
5846;DHT22;2949;50.778;7.094;2022-10-16T16:05:08;19.10;99.90
5846;DHT22;2949;50.778;7.094;2022-10-16T16:07:38;19.10;99.90
5846;DHT22;2949;50.778;7.094;2022-10-16T16:10:07;19.00;99.90
5846;DHT22;2949;50.778;7.094;2022-10-16T16:12:33;18.90;99.90
5846;DHT22;2949;50.778;7.094;2022-10-16T16:14:59;18.90;99.90
5846;DHT22;2949;50.778;7.094;2022-10-16T16:17:25;18.80;99.90
5846;DHT22;2949;50.778;7.094;2022-10-16T16:19:51;18.80;99.90
5846;DHT22;2949;50.778;7.094;2022-10-16T16:22:16;18.70;99.90
5846;DHT22;2949;50.778;7.094;2022-10-16T16:24:42;18.70;99.90
5846;DHT22;2949;50.778;7.094;2022-10-16T16:27:08;18.70;99.90
5846;DHT22;2949;50.778;7.094;2022-10-16T16:29:33;18.70;99.90
5846;DHT22;2949;50.778;7.094;2022-10-16T16:32:00;18.70;99.90
5846;DHT22;2949;50.778;7.094;2022-10-16T16:34:28;18.60;99.90
5846;DHT22;2949;50.778;7.094;2022-10-16T16:36:55;18.60;99.90
5846;DHT22;2949;50.778;7.094;2022-10-16T16:39:21;18.60;99.90
5846;DHT22;2949;50.778;7.094;2022-10-16T16:41:47;18.50;99.90
5846;DHT22;2949;50.778;7.094;2022-10-16T16:44:13;18.50;99.90
5846;DHT22;2949;50.778;7.094;2022-10-16T16:46:39;18.50;99.90
5846;DHT22;2949;50.778;7.094;2022-10-16T16:49:05;18.50;99.90
5846;DHT22;2949;50.778;7.094;2022-10-16T16:51:32;18.40;99.90
5846;DHT22;2949;50.778;7.094;2022-10-16T16:53:57;18.40;99.90
5846;DHT22;2949;50.778;7.094;2022-10-16T16:56:23;18.30;99.90
5846;DHT22;2949;50.778;7.094;2022-10-16T16:58:51;18.30;99.90
5846;DHT22;2949;50.778;7.094;2022-10-16T17:01:17;18.30;99.90
5846;DHT22;2949;50.778;7.094;2022-10-16T17:03:44;18.30;99.90
5846;DHT22;2949;50.778;7.094;2022-10-16T17:06:11;18.20;99.90
5846;DHT22;2949;50.778;7.094;2022-10-16T17:08:37;18.30;99.90
5846;DHT22;2949;50.778;7.094;2022-10-16T17:11:04;18.30;99.90
5846;DHT22;2949;50.778;7.094;2022-10-16T17:13:32;18.30;99.90
5846;DHT22;2949;50.778;7.094;2022-10-16T17:16:04;18.30;99.90
5846;DHT22;2949;50.778;7.094;2022-10-16T17:18:30;18.30;99.90
5846;DHT22;2949;50.778;7.094;2022-10-16T17:20:58;18.30;99.90
5846;DHT22;2949;50.778;7.094;2022-10-16T17:23:24;18.30;99.90
5846;DHT22;2949;50.778;7.094;2022-10-16T17:25:50;18.30;99.90
5846;DHT22;2949;50.778;7.094;2022-10-16T17:28:15;18.20;99.90
5846;DHT22;2949;50.778;7.094;2022-10-16T17:30:41;18.20;99.90
5846;DHT22;2949;50.778;7.094;2022-10-16T17:33:09;18.20;99.90
5846;DHT22;2949;50.778;7.094;2022-10-16T17:35:42;18.20;99.90
5846;DHT22;2949;50.778;7.094;2022-10-16T17:38:08;18.10;99.90
5846;DHT22;2949;50.778;7.094;2022-10-16T17:40:34;18.10;99.90
5846;DHT22;2949;50.778;7.094;2022-10-16T17:43:00;18.00;99.90
5846;DHT22;2949;50.778;7.094;2022-10-16T17:45:25;18.00;99.90
5846;DHT22;2949;50.778;7.094;2022-10-16T17:47:51;18.00;99.90
5846;DHT22;2949;50.778;7.094;2022-10-16T17:50:17;18.00;99.90